메인 페이지
METAR-TAF:

METAR-TAF

공항 :

요새 피어스, 플로리다, 미국

위도: 27-29-53N, 경도: 080-22-36W, 고도: 8m

현재 날씨관측

예보는 16분 전, 22:53시(UTC)에 발표되었습니다.
서남서12kt, 순간 최대 풍속 25kt
온도 30°C
습도 43%
기압 1007 hPa
시정: 16.1km
고도 8500ft 상공 구름 조금

METAR: KFPR 312253Z 25012G25KT 10SM FEW085 30/16 A2975 RMK AO2 PK WND 24027/2215 SLP072 T03000156

시각: 19:09 (23:09 UTC)

예보

예보는 5 시간 36분 전, 17:33시(UTC)에 발표되었습니다.
예보 대상 시간: 31일 18시부터 01일 18시까지 (UTC)
남서15kt, 순간 최대 풍속 22kt
시정: 10km
고도 3500ft 상공 구름 보통
고도 25000ft 상공 구름 많음
01일 0500시부터 (UTC)
남서11kt, 순간 최대 풍속 18kt
시정: 10km
고도 2500ft 상공 구름 보통
고도 4000ft 상공 구름 많음
시계 내 소나기
01일 0900시부터 (UTC)
9kt
시정: 10km
고도 2000ft 상공 구름 보통
고도 4000ft 상공 구름 많음
01일 1500시부터 (UTC)
북서11kt
시정: 10km
맑음

TAF: KFPR 311733Z 3118/0118 23015G22KT P6SM SCT035 BKN250 FM010500 23011G18KT P6SM VCSH SCT025 BKN040 FM010900 27009KT P6SM SCT020 BKN040 FM011500 32011KT P6SM SKC

4,000개 이상의 공항 관측 자료 및 예보 (METAR 및 TAF 보고).

지도상에서 검색 가능한 기상관측소가 노란 점과 빨간 점으로 표시되어 있습니다.

기상관측소 명을 보려면 표시 위로 마우스를 이동하세요.

날씨 관측과 예보를 보려면 클릭하세요.

지도 변경 : 확대하려면 엑스 표시가 있는 녹색 버튼, 축소하려면 빼기 표시가 있는 녹색 버튼, 다음 페이지의 지도를 보려면 녹색 화살표를 클릭하세요.


METAR-TAF: